createdAt,value
2023-04-16T00:00:52.510Z,110.24
2023-04-16T00:01:52.584Z,112.78
2023-04-16T00:02:52.862Z,102.16
2023-04-16T00:03:52.876Z,95.20
2023-04-16T00:04:52.797Z,88.65
2023-04-16T00:05:52.757Z,100.45
2023-04-16T00:06:52.814Z,102.25
2023-04-16T00:07:52.852Z,104.25
2023-04-16T00:08:52.922Z,106.90
2023-04-16T00:09:52.976Z,115.97
2023-04-16T00:10:53.046Z,121.40
2023-04-16T00:11:53.168Z,122.93
2023-04-16T00:12:53.183Z,122.14
2023-04-16T00:13:53.176Z,109.11
2023-04-16T00:14:53.245Z,92.24
2023-04-16T00:15:53.301Z,82.07
2023-04-16T00:16:53.517Z,88.87
2023-04-16T00:17:53.430Z,105.78
2023-04-16T00:18:53.460Z,115.80
2023-04-16T00:19:53.494Z,102.60
2023-04-16T00:20:53.571Z,107.19
2023-04-16T00:21:53.596Z,102.95
2023-04-16T00:22:53.649Z,119.78
2023-04-16T00:23:53.734Z,107.93
2023-04-16T00:24:53.767Z,108.64
2023-04-16T00:25:53.893Z,107.20
2023-04-16T00:26:53.868Z,97.94
2023-04-16T00:27:53.919Z,95.52
2023-04-16T00:28:53.960Z,90.90
2023-04-16T00:29:54.002Z,89.62
2023-04-16T00:30:54.084Z,88.98
2023-04-16T00:31:54.104Z,94.94
2023-04-16T00:32:54.178Z,104.88
2023-04-16T00:33:54.187Z,114.93
2023-04-16T00:34:54.312Z,118.99
2023-04-16T00:35:54.292Z,106.81
2023-04-16T00:36:54.352Z,97.55
2023-04-16T00:37:54.382Z,89.20
2023-04-16T00:38:54.449Z,93.81
2023-04-16T00:39:54.476Z,85.31
2023-04-16T00:40:54.531Z,86.14
2023-04-16T00:41:54.589Z,93.47
2023-04-16T00:42:54.622Z,88.87
2023-04-16T00:43:54.679Z,101.78
2023-04-16T00:44:54.730Z,93.72
2023-04-16T00:45:54.810Z,87.35
2023-04-16T00:46:54.844Z,91.88
2023-04-16T00:47:54.890Z,95.33
2023-04-16T00:48:54.985Z,88.40
2023-04-16T00:49:54.998Z,89.56
2023-04-16T00:50:55.034Z,84.66
2023-04-16T00:51:55.096Z,79.46
2023-04-16T00:52:55.139Z,79.35
2023-04-16T00:53:55.188Z,89.58
2023-04-16T00:54:55.247Z,98.27
2023-04-16T00:55:55.309Z,122.17
2023-04-16T00:56:55.434Z,114.97
2023-04-16T00:57:55.414Z,107.36
2023-04-16T00:58:55.479Z,90.07
2023-04-16T00:59:55.518Z,107.35
2023-04-16T01:00:55.578Z,106.04
2023-04-16T01:01:55.757Z,102.97
2023-04-16T01:02:55.891Z,108.97
2023-04-16T01:03:55.811Z,92.82
2023-04-16T01:04:55.792Z,90.88
2023-04-16T01:05:55.830Z,104.86
2023-04-16T01:06:55.906Z,101.90
2023-04-16T01:07:55.939Z,95.92
2023-04-16T01:08:56.014Z,108.19
2023-04-16T01:09:56.055Z,104.24
2023-04-16T01:10:56.095Z,104.52
2023-04-16T01:11:56.174Z,107.00
2023-04-16T01:12:56.224Z,120.95
2023-04-16T01:13:56.285Z,120.32
2023-04-16T01:14:56.303Z,120.79
2023-04-16T01:15:56.378Z,112.60
2023-04-16T01:16:56.438Z,124.69
2023-04-16T01:17:56.529Z,123.22
2023-04-16T01:18:56.630Z,118.10
2023-04-16T01:19:56.617Z,116.75
2023-04-16T01:20:56.663Z,121.65
2023-04-16T01:21:56.713Z,124.80
2023-04-16T01:22:56.764Z,121.04
2023-04-16T01:23:56.832Z,126.00
2023-04-16T01:24:56.887Z,117.79
2023-04-16T01:25:56.938Z,117.22
2023-04-16T01:26:57.024Z,120.08
2023-04-16T01:27:57.060Z,126.04
2023-04-16T01:28:57.124Z,128.44
2023-04-16T01:29:57.173Z,133.93
2023-04-16T01:30:57.299Z,129.95
2023-04-16T01:31:57.298Z,125.97
2023-04-16T01:32:57.406Z,131.74
2023-04-16T01:33:57.417Z,132.64
2023-04-16T01:34:57.456Z,130.93
2023-04-16T01:35:57.525Z,124.42
2023-04-16T01:36:57.592Z,135.68
2023-04-16T01:37:57.637Z,138.45
2023-04-16T01:38:57.707Z,131.19
2023-04-16T01:39:57.754Z,139.37
2023-04-16T01:40:57.890Z,139.51
2023-04-16T01:41:57.902Z,140.70
2023-04-16T01:42:57.914Z,147.02
2023-04-16T01:43:57.943Z,137.39
2023-04-16T01:44:58.022Z,140.95
2023-04-16T01:45:58.080Z,146.82
2023-04-16T01:46:58.245Z,151.28
2023-04-16T01:47:58.239Z,153.87
2023-04-16T01:48:58.234Z,151.72
2023-04-16T01:49:58.283Z,142.46
2023-04-16T01:50:58.345Z,143.03
2023-04-16T01:51:58.442Z,150.75
2023-04-16T01:52:58.461Z,153.04
2023-04-16T01:53:58.489Z,151.65
2023-04-16T01:54:58.567Z,150.36
2023-04-16T01:55:58.645Z,143.68
2023-04-16T01:56:58.652Z,144.07
2023-04-16T01:57:58.758Z,145.74
2023-04-16T01:58:58.776Z,146.41
2023-04-16T01:59:58.849Z,143.45
2023-04-16T02:00:58.987Z,140.35
2023-04-16T02:01:58.986Z,140.49
2023-04-16T02:02:59.298Z,144.36
2023-04-16T02:03:59.187Z,155.00
2023-04-16T02:04:59.145Z,144.21
2023-04-16T02:05:59.180Z,140.92
2023-04-16T02:06:59.237Z,144.43
2023-04-16T02:07:59.313Z,139.72
2023-04-16T02:08:59.350Z,143.45
2023-04-16T02:09:59.406Z,141.09
2023-04-16T02:10:59.475Z,140.75
2023-04-16T02:11:59.517Z,147.15
2023-04-16T02:12:59.613Z,150.66
2023-04-16T02:13:59.633Z,146.03
2023-04-16T02:14:59.688Z,145.26
2023-04-16T02:15:59.787Z,145.29
2023-04-16T02:16:59.806Z,138.28
2023-04-16T02:17:59.906Z,146.27
2023-04-16T02:18:59.929Z,132.37
2023-04-16T02:19:59.979Z,137.87
2023-04-16T02:21:00.034Z,140.98
2023-04-16T02:22:00.115Z,131.79
2023-04-16T02:23:00.147Z,128.55
2023-04-16T02:24:00.206Z,140.16
2023-04-16T02:25:00.336Z,138.40
2023-04-16T02:26:00.294Z,159.19
2023-04-16T02:27:00.359Z,166.99
2023-04-16T02:28:00.429Z,168.17
2023-04-16T02:29:00.494Z,161.81
2023-04-16T02:30:00.563Z,150.22
2023-04-16T02:31:00.584Z,159.73
2023-04-16T02:32:00.710Z,148.64
2023-04-16T02:33:00.828Z,156.08
2023-04-16T02:34:00.776Z,156.16
2023-04-16T02:35:00.825Z,153.26
2023-04-16T02:36:00.889Z,153.27
2023-04-16T02:37:00.960Z,154.03
2023-04-16T02:38:01.008Z,147.89
2023-04-16T02:39:01.063Z,155.07
2023-04-16T02:40:01.134Z,159.66
2023-04-16T02:41:01.192Z,156.14
2023-04-16T02:42:01.236Z,160.03
2023-04-16T02:43:01.297Z,157.64
2023-04-16T02:44:01.358Z,157.55
2023-04-16T02:45:01.441Z,162.75
2023-04-16T02:46:01.519Z,164.49
2023-04-16T02:47:01.559Z,166.55
2023-04-16T02:48:01.695Z,170.61
2023-04-16T02:49:01.645Z,172.96
2023-04-16T02:50:01.714Z,173.48
2023-04-16T02:51:01.756Z,182.97
2023-04-16T02:52:01.836Z,184.42
2023-04-16T02:53:01.932Z,188.27
2023-04-16T02:54:01.957Z,179.98
2023-04-16T02:55:02.064Z,189.58
2023-04-16T02:56:02.127Z,189.45
2023-04-16T02:57:02.135Z,198.47
2023-04-16T02:58:02.208Z,202.88
2023-04-16T02:59:02.248Z,196.21
2023-04-16T03:00:02.328Z,210.33
2023-04-16T03:01:02.436Z,209.58
2023-04-16T03:02:02.464Z,204.31
2023-04-16T03:03:02.528Z,205.02
2023-04-16T03:04:02.601Z,216.27
2023-04-16T03:05:02.613Z,214.49
2023-04-16T03:06:02.724Z,220.07
2023-04-16T03:07:02.731Z,228.86
2023-04-16T03:08:02.814Z,230.49
2023-04-16T03:09:02.854Z,226.82
2023-04-16T03:10:03.016Z,224.87
2023-04-16T03:11:02.983Z,218.48
2023-04-16T03:12:03.010Z,215.03
2023-04-16T03:13:03.090Z,224.33
2023-04-16T03:14:03.136Z,224.40
2023-04-16T03:15:03.221Z,230.24
2023-04-16T03:16:03.314Z,229.60
2023-04-16T03:17:03.297Z,226.61
2023-04-16T03:18:03.394Z,228.71
2023-04-16T03:19:03.451Z,224.86
2023-04-16T03:20:03.588Z,218.59
2023-04-16T03:21:03.533Z,226.90
2023-04-16T03:22:03.592Z,222.16
2023-04-16T03:23:03.659Z,220.67
2023-04-16T03:24:03.723Z,235.73
2023-04-16T03:25:03.797Z,235.01
2023-04-16T03:26:03.850Z,242.87
2023-04-16T03:27:03.906Z,232.10
2023-04-16T03:28:03.995Z,229.26
2023-04-16T03:29:04.029Z,219.17
2023-04-16T03:30:04.074Z,219.47
2023-04-16T03:31:04.150Z,219.95
2023-04-16T03:32:04.290Z,216.67
2023-04-16T03:33:04.284Z,220.72
2023-04-16T03:34:04.315Z,215.20
2023-04-16T03:35:04.388Z,213.43
2023-04-16T03:36:04.431Z,215.54
2023-04-16T03:37:04.485Z,213.47
2023-04-16T03:38:04.560Z,216.65
2023-04-16T03:39:04.618Z,221.65
2023-04-16T03:40:04.670Z,216.86
2023-04-16T03:41:04.754Z,215.53
2023-04-16T03:42:04.793Z,221.10
2023-04-16T03:43:04.857Z,215.68
2023-04-16T03:44:04.902Z,213.22
2023-04-16T03:45:04.964Z,222.12
2023-04-16T03:46:05.076Z,209.03
2023-04-16T03:47:05.089Z,213.97
2023-04-16T03:48:05.158Z,225.33
2023-04-16T03:49:05.212Z,221.79
2023-04-16T03:50:05.273Z,227.67
2023-04-16T03:51:05.327Z,227.43
2023-04-16T03:52:05.372Z,230.45
2023-04-16T03:53:05.438Z,222.21
2023-04-16T03:54:05.505Z,231.16
2023-04-16T03:55:05.558Z,233.46
2023-04-16T03:56:05.602Z,236.25
2023-04-16T03:57:05.678Z,238.07
2023-04-16T03:58:05.720Z,241.34
2023-04-16T03:59:05.778Z,245.44
2023-04-16T04:00:05.845Z,248.04
2023-04-16T04:01:05.891Z,240.39
2023-04-16T04:02:06.007Z,247.09
2023-04-16T04:03:06.201Z,245.51
2023-04-16T04:04:06.273Z,250.21
2023-04-16T04:05:06.299Z,242.27
2023-04-16T04:06:06.211Z,228.67
2023-04-16T04:07:06.258Z,226.74
2023-04-16T04:08:06.336Z,219.24
2023-04-16T04:09:06.406Z,223.19
2023-04-16T04:10:06.442Z,232.78
2023-04-16T04:11:06.525Z,233.26
2023-04-16T04:12:06.586Z,221.93
2023-04-16T04:13:06.633Z,230.61
2023-04-16T04:14:06.697Z,228.24
2023-04-16T04:15:06.743Z,227.32
2023-04-16T04:16:06.899Z,231.26
2023-04-16T04:17:06.881Z,223.22
2023-04-16T04:18:06.931Z,220.95
2023-04-16T04:19:07.076Z,220.32
2023-04-16T04:20:07.052Z,224.67
2023-04-16T04:21:07.128Z,225.57
2023-04-16T04:22:07.181Z,218.81
2023-04-16T04:23:07.247Z,218.00
2023-04-16T04:24:07.306Z,214.53
2023-04-16T04:25:07.352Z,214.24
2023-04-16T04:26:07.480Z,216.71
2023-04-16T04:27:07.474Z,222.31
2023-04-16T04:28:07.524Z,225.63
2023-04-16T04:29:07.791Z,233.69
2023-04-16T04:30:07.650Z,218.66
2023-04-16T04:31:07.703Z,221.49
2023-04-16T04:32:07.917Z,217.79
2023-04-16T04:33:07.831Z,226.51
2023-04-16T04:34:07.873Z,222.66
2023-04-16T04:35:07.933Z,230.34
2023-04-16T04:36:07.976Z,223.90
2023-04-16T04:37:08.031Z,224.25
2023-04-16T04:38:08.110Z,233.11
2023-04-16T04:39:08.359Z,230.30
2023-04-16T04:40:08.198Z,232.62
2023-04-16T04:41:08.273Z,238.77
2023-04-16T04:42:08.311Z,236.36
2023-04-16T04:43:08.411Z,232.64
2023-04-16T04:44:08.447Z,231.97
2023-04-16T04:45:08.498Z,231.32
2023-04-16T04:46:08.593Z,238.72
2023-04-16T04:47:08.606Z,236.43
2023-04-16T04:48:08.692Z,234.78
2023-04-16T04:49:08.863Z,236.27
2023-04-16T04:50:08.785Z,235.02
2023-04-16T04:51:08.847Z,234.83
2023-04-16T04:52:08.892Z,232.90
2023-04-16T04:53:08.969Z,233.59
2023-04-16T04:54:09.020Z,231.86
2023-04-16T04:55:09.067Z,230.17
2023-04-16T04:56:12.943Z,232.18
2023-04-16T04:57:09.157Z,227.64
2023-04-16T04:58:09.189Z,231.38
2023-04-16T04:59:09.313Z,231.95
2023-04-16T05:00:09.101Z,234.44
2023-04-16T05:01:09.212Z,229.98
2023-04-16T05:02:09.149Z,219.78
2023-04-16T05:03:09.209Z,228.00
2023-04-16T05:04:09.138Z,226.49
2023-04-16T05:05:09.148Z,218.24
2023-04-16T05:06:09.068Z,212.00
2023-04-16T05:07:09.103Z,218.89
2023-04-16T05:08:09.089Z,215.31
2023-04-16T05:09:09.302Z,212.33
2023-04-16T05:10:09.054Z,215.59
2023-04-16T05:11:09.048Z,217.23
2023-04-16T05:12:09.046Z,228.04
2023-04-16T05:13:09.017Z,218.03
2023-04-16T05:14:09.024Z,219.56
2023-04-16T05:15:09.020Z,225.71
2023-04-16T05:16:09.021Z,228.54
2023-04-16T05:17:09.082Z,221.96
2023-04-16T05:18:09.082Z,227.43
2023-04-16T05:19:09.357Z,221.58
2023-04-16T05:20:09.222Z,218.39
2023-04-16T05:21:09.270Z,231.56
2023-04-16T05:22:09.324Z,230.68
2023-04-16T05:23:09.395Z,231.74
2023-04-16T05:24:09.463Z,225.41
2023-04-16T05:25:09.505Z,222.79
2023-04-16T05:26:09.566Z,224.97
2023-04-16T05:27:09.634Z,219.91
2023-04-16T05:28:09.674Z,219.40
2023-04-16T05:29:09.930Z,216.55
2023-04-16T05:30:09.799Z,212.81
2023-04-16T05:31:09.890Z,214.95
2023-04-16T05:32:09.930Z,206.61
2023-04-16T05:33:09.995Z,212.63
2023-04-16T05:34:10.016Z,205.91
2023-04-16T05:35:10.063Z,208.62
2023-04-16T05:36:10.116Z,214.92
2023-04-16T05:37:10.171Z,216.27
2023-04-16T05:38:10.251Z,211.03
2023-04-16T05:39:10.383Z,206.77
2023-04-16T05:40:10.348Z,208.87
2023-04-16T05:41:10.405Z,202.71
2023-04-16T05:42:10.462Z,211.39
2023-04-16T05:43:10.532Z,204.03
2023-04-16T05:44:10.579Z,204.57
2023-04-16T05:45:10.621Z,209.01
2023-04-16T05:46:10.708Z,214.98
2023-04-16T05:47:10.747Z,221.61
2023-04-16T05:48:10.841Z,222.48
2023-04-16T05:49:11.014Z,217.68
2023-04-16T05:50:10.921Z,212.90
2023-04-16T05:51:10.962Z,212.73
2023-04-16T05:52:11.027Z,220.63
2023-04-16T05:53:11.122Z,207.53
2023-04-16T05:54:11.151Z,202.53
2023-04-16T05:55:11.204Z,198.87
2023-04-16T05:56:11.249Z,200.96
2023-04-16T05:57:11.308Z,204.26
2023-04-16T05:58:11.366Z,211.96
2023-04-16T05:59:11.722Z,211.23
2023-04-16T06:00:11.515Z,204.94
2023-04-16T06:01:11.523Z,207.54
2023-04-16T06:02:11.682Z,204.99
2023-04-16T06:03:11.859Z,206.17
2023-04-16T06:04:11.892Z,205.12
2023-04-16T06:05:11.784Z,200.24
2023-04-16T06:06:11.804Z,200.30
2023-04-16T06:07:11.878Z,190.92
2023-04-16T06:08:11.933Z,191.68
2023-04-16T06:09:12.084Z,194.27
2023-04-16T06:10:12.027Z,180.53
2023-04-16T06:11:12.088Z,190.03
2023-04-16T06:12:12.144Z,195.89
2023-04-16T06:13:12.224Z,208.90
2023-04-16T06:14:12.258Z,210.54
2023-04-16T06:15:12.319Z,207.33
2023-04-16T06:16:12.385Z,208.95
2023-04-16T06:17:12.433Z,224.27
2023-04-16T06:18:12.531Z,219.14
2023-04-16T06:19:12.567Z,224.64
2023-04-16T06:20:12.634Z,226.58
2023-04-16T06:21:12.678Z,225.17
2023-04-16T06:22:12.733Z,207.81
2023-04-16T06:23:12.775Z,198.66
2023-04-16T06:24:12.854Z,203.59
2023-04-16T06:25:12.895Z,212.24
2023-04-16T06:26:12.960Z,204.47
2023-04-16T06:27:13.015Z,214.62
2023-04-16T06:28:13.079Z,211.92
2023-04-16T06:29:13.150Z,215.46
2023-04-16T06:30:13.296Z,212.82
2023-04-16T06:31:13.299Z,214.82
2023-04-16T06:32:13.316Z,207.45
2023-04-16T06:33:13.376Z,205.85
2023-04-16T06:34:13.421Z,212.19
2023-04-16T06:35:13.495Z,212.75
2023-04-16T06:36:13.539Z,209.50
2023-04-16T06:37:13.607Z,204.63
2023-04-16T06:38:13.685Z,191.88
2023-04-16T06:39:13.721Z,204.67
2023-04-16T06:40:13.803Z,206.27
2023-04-16T06:41:13.862Z,203.73
2023-04-16T06:42:13.899Z,203.50
2023-04-16T06:43:13.956Z,208.71
2023-04-16T06:44:13.999Z,205.15
2023-04-16T06:45:14.058Z,209.01
2023-04-16T06:46:14.171Z,218.92
2023-04-16T06:47:14.167Z,214.80
2023-04-16T06:48:14.212Z,221.76
2023-04-16T06:49:14.286Z,216.05
2023-04-16T06:50:14.326Z,212.51
2023-04-16T06:51:14.389Z,211.94
2023-04-16T06:52:14.540Z,208.52
2023-04-16T06:53:14.500Z,213.74
2023-04-16T06:54:14.561Z,221.23
2023-04-16T06:55:14.624Z,236.71
2023-04-16T06:56:14.668Z,232.83
2023-04-16T06:57:14.725Z,225.85
2023-04-16T06:58:14.768Z,228.22
2023-04-16T06:59:14.815Z,224.42
2023-04-16T07:00:14.891Z,223.41
2023-04-16T07:01:14.941Z,215.94
2023-04-16T07:02:15.096Z,222.28
2023-04-16T07:03:15.207Z,217.69
2023-04-16T07:04:15.130Z,212.60
2023-04-16T07:05:15.163Z,214.79
2023-04-16T07:06:15.225Z,204.27
2023-04-16T07:07:15.275Z,210.08
2023-04-16T07:08:15.346Z,204.19
2023-04-16T07:09:15.372Z,201.52
2023-04-16T07:10:15.422Z,204.01
2023-04-16T07:11:15.477Z,208.92
2023-04-16T07:12:15.519Z,205.74
2023-04-16T07:13:15.605Z,202.55
2023-04-16T07:14:15.715Z,192.63
2023-04-16T07:15:15.682Z,189.04
2023-04-16T07:16:15.744Z,200.63
2023-04-16T07:17:15.775Z,193.40
2023-04-16T07:18:15.884Z,191.41
2023-04-16T07:19:15.875Z,181.75
2023-04-16T07:20:15.938Z,190.40
2023-04-16T07:21:15.987Z,191.64
2023-04-16T07:22:16.034Z,183.76
2023-04-16T07:23:16.069Z,177.81
2023-04-16T07:24:16.141Z,184.37
2023-04-16T07:25:16.171Z,189.73
2023-04-16T07:26:16.241Z,196.87
2023-04-16T07:27:16.281Z,186.98
2023-04-16T07:28:16.326Z,191.85
2023-04-16T07:29:16.371Z,196.68
2023-04-16T07:30:16.406Z,187.33
2023-04-16T07:31:16.472Z,189.13
2023-04-16T07:32:16.604Z,182.74
2023-04-16T07:33:16.606Z,185.66
2023-04-16T07:34:16.604Z,186.30
2023-04-16T07:35:16.647Z,179.78
2023-04-16T07:36:16.706Z,193.65
2023-04-16T07:37:16.859Z,192.73
2023-04-16T07:38:16.833Z,201.92
2023-04-16T07:39:16.844Z,195.66
2023-04-16T07:40:16.917Z,199.59
2023-04-16T07:41:16.964Z,200.68
2023-04-16T07:42:16.994Z,189.17
2023-04-16T07:43:17.054Z,188.12
2023-04-16T07:44:17.106Z,188.58
2023-04-16T07:45:17.174Z,180.12
2023-04-16T07:46:17.238Z,183.37
2023-04-16T07:47:17.266Z,184.23
2023-04-16T07:48:17.301Z,175.38
2023-04-16T07:49:17.335Z,180.60
2023-04-16T07:50:17.378Z,180.55
2023-04-16T07:51:17.403Z,180.26
2023-04-16T07:52:17.462Z,183.39
2023-04-16T07:53:17.541Z,179.68
2023-04-16T07:54:17.558Z,170.36
2023-04-16T07:55:17.637Z,167.51
2023-04-16T07:56:17.642Z,176.04
2023-04-16T07:57:17.686Z,180.16
2023-04-16T07:58:17.744Z,172.10
2023-04-16T07:59:23.588Z,168.43
2023-04-16T08:00:18.810Z,168.68
2023-04-16T08:01:17.761Z,168.86
2023-04-16T08:02:17.829Z,171.00
2023-04-16T08:03:17.906Z,173.79
2023-04-16T08:04:17.915Z,175.63
2023-04-16T08:05:17.771Z,175.21
2023-04-16T08:06:17.745Z,173.87
2023-04-16T08:07:17.725Z,175.78
2023-04-16T08:08:17.749Z,168.70
2023-04-16T08:09:17.783Z,182.05
2023-04-16T08:10:17.826Z,187.42
2023-04-16T08:11:17.861Z,173.58
2023-04-16T08:12:17.882Z,172.08
2023-04-16T08:13:17.961Z,171.22
2023-04-16T08:14:17.998Z,170.83
2023-04-16T08:15:18.026Z,167.21
2023-04-16T08:16:18.089Z,166.38
2023-04-16T08:17:18.110Z,160.26
2023-04-16T08:18:18.126Z,159.63
2023-04-16T08:19:18.161Z,158.93
2023-04-16T08:20:19.390Z,154.79
2023-04-16T08:21:18.245Z,156.86
2023-04-16T08:22:18.378Z,162.34
2023-04-16T08:23:18.343Z,152.81
2023-04-16T08:24:18.384Z,149.67
2023-04-16T08:25:18.424Z,146.42
2023-04-16T08:26:18.473Z,147.27
2023-04-16T08:27:20.117Z,142.07
2023-04-16T08:28:18.556Z,148.03
2023-04-16T08:29:18.570Z,153.75
2023-04-16T08:30:18.615Z,151.30
2023-04-16T08:31:18.684Z,149.79
2023-04-16T08:32:18.782Z,153.57
2023-04-16T08:33:18.747Z,151.61
2023-04-16T08:34:18.792Z,142.64
2023-04-16T08:35:18.815Z,137.94
2023-04-16T08:36:18.910Z,130.51
2023-04-16T08:37:18.905Z,137.43
2023-04-16T08:38:18.963Z,133.22
2023-04-16T08:39:18.994Z,153.88
2023-04-16T08:40:19.030Z,153.06
2023-04-16T08:41:19.045Z,141.46
2023-04-16T08:42:19.091Z,144.43
2023-04-16T08:43:19.230Z,146.27
2023-04-16T08:44:19.185Z,144.63
2023-04-16T08:45:19.222Z,152.56
2023-04-16T08:46:19.276Z,143.55
2023-04-16T08:47:19.315Z,142.25
2023-04-16T08:48:19.356Z,138.19
2023-04-16T08:49:19.375Z,130.96
2023-04-16T08:50:19.415Z,136.55
2023-04-16T08:51:19.474Z,130.15
2023-04-16T08:52:19.508Z,136.23
2023-04-16T08:53:19.558Z,138.98
2023-04-16T08:54:19.569Z,136.95
2023-04-16T08:55:19.609Z,138.00
2023-04-16T08:56:19.659Z,139.85
2023-04-16T08:57:19.681Z,138.52
2023-04-16T08:58:19.723Z,135.99
2023-04-16T08:59:19.776Z,125.58
2023-04-16T09:00:19.828Z,132.33
2023-04-16T09:01:19.919Z,121.82
2023-04-16T09:02:19.969Z,128.00
2023-04-16T09:03:20.053Z,141.90
2023-04-16T09:04:19.997Z,133.72
2023-04-16T09:05:20.065Z,139.13
2023-04-16T09:06:20.011Z,140.80
2023-04-16T09:07:20.052Z,146.61
2023-04-16T09:08:20.081Z,133.93
2023-04-16T09:09:20.110Z,129.79
2023-04-16T09:10:20.256Z,127.64
2023-04-16T09:11:20.181Z,135.17
2023-04-16T09:12:20.199Z,128.39
2023-04-16T09:13:20.260Z,116.82
2023-04-16T09:14:20.281Z,117.58
2023-04-16T09:15:20.299Z,123.61
2023-04-16T09:16:20.372Z,113.11
2023-04-16T09:17:20.441Z,128.04
2023-04-16T09:18:20.438Z,135.59
2023-04-16T09:19:20.447Z,143.79
2023-04-16T09:20:20.520Z,160.97
2023-04-16T09:21:22.112Z,149.03
2023-04-16T09:22:20.541Z,144.30
2023-04-16T09:23:20.513Z,127.63
2023-04-16T09:24:20.516Z,138.22
2023-04-16T09:25:20.494Z,147.81
2023-04-16T09:26:20.536Z,173.74
2023-04-16T09:27:20.571Z,183.40
2023-04-16T09:28:20.505Z,178.56
2023-04-16T09:29:20.482Z,171.74
2023-04-16T09:30:20.469Z,165.26
2023-04-16T09:31:20.561Z,169.12
2023-04-16T09:32:20.486Z,164.60
2023-04-16T09:33:20.441Z,155.66
2023-04-16T09:34:20.439Z,151.78
2023-04-16T09:35:20.468Z,150.52
2023-04-16T09:36:20.428Z,154.36
2023-04-16T09:37:20.415Z,167.03
2023-04-16T09:38:20.409Z,172.17
2023-04-16T09:39:20.417Z,177.71
2023-04-16T09:40:20.396Z,176.14
2023-04-16T09:41:20.391Z,183.40
2023-04-16T09:42:20.401Z,182.42
2023-04-16T09:43:20.391Z,166.10
2023-04-16T09:44:20.377Z,154.47
2023-04-16T09:45:20.762Z,143.85
2023-04-16T09:46:20.452Z,143.46
2023-04-16T09:47:20.413Z,140.54
2023-04-16T09:48:20.339Z,142.93
2023-04-16T09:49:20.435Z,153.65
2023-04-16T09:50:20.382Z,158.56
2023-04-16T09:51:20.350Z,163.50
2023-04-16T09:52:20.333Z,173.59
2023-04-16T09:53:20.318Z,175.23
2023-04-16T09:54:20.315Z,168.07
2023-04-16T09:55:20.298Z,165.55
2023-04-16T09:56:20.288Z,146.14
2023-04-16T09:57:20.298Z,147.46
2023-04-16T09:58:20.292Z,153.47
2023-04-16T09:59:20.265Z,143.85
2023-04-16T10:00:20.274Z,148.25
2023-04-16T10:01:20.289Z,165.56
2023-04-16T10:02:20.359Z,157.35
2023-04-16T10:03:20.331Z,153.45
2023-04-16T10:04:20.271Z,150.36
2023-04-16T10:05:20.243Z,147.08
2023-04-16T10:06:20.232Z,137.98
2023-04-16T10:07:20.234Z,138.17
2023-04-16T10:08:20.219Z,135.49
2023-04-16T10:09:20.210Z,139.23
2023-04-16T10:10:20.193Z,141.11
2023-04-16T10:11:20.194Z,141.39
2023-04-16T10:12:20.278Z,143.37
2023-04-16T10:13:20.174Z,130.65
2023-04-16T10:14:20.166Z,124.82
2023-04-16T10:15:20.156Z,132.54
2023-04-16T10:16:20.164Z,129.76
2023-04-16T10:17:20.157Z,118.37
2023-04-16T10:18:20.143Z,119.14
2023-04-16T10:19:20.135Z,116.31
2023-04-16T10:20:20.140Z,123.91
2023-04-16T10:21:20.112Z,115.73
2023-04-16T10:22:20.127Z,126.22
2023-04-16T10:23:20.133Z,133.07
2023-04-16T10:24:20.136Z,135.77
2023-04-16T10:25:20.166Z,134.10
2023-04-16T10:26:20.189Z,128.10
2023-04-16T10:27:20.226Z,118.15
2023-04-16T10:28:20.242Z,120.43
2023-04-16T10:29:20.253Z,121.04
2023-04-16T10:30:20.272Z,122.13
2023-04-16T10:31:20.371Z,120.57
2023-04-16T10:32:20.371Z,123.22
2023-04-16T10:33:20.353Z,116.61
2023-04-16T10:34:20.450Z,118.13
2023-04-16T10:35:20.376Z,118.83
2023-04-16T10:36:20.396Z,117.79
2023-04-16T10:37:20.411Z,119.09
2023-04-16T10:38:20.450Z,112.96
2023-04-16T10:39:20.482Z,116.55
2023-04-16T10:40:20.490Z,115.85
2023-04-16T10:41:20.491Z,118.48
2023-04-16T10:42:20.529Z,118.69
2023-04-16T10:43:20.551Z,111.86
2023-04-16T10:44:20.595Z,113.51
2023-04-16T10:45:20.638Z,116.71
2023-04-16T10:46:20.684Z,126.69
2023-04-16T10:47:20.685Z,128.50
2023-04-16T10:48:20.711Z,144.81
2023-04-16T10:49:20.735Z,154.48
2023-04-16T10:50:20.795Z,141.75
2023-04-16T10:51:20.823Z,135.12
2023-04-16T10:52:20.853Z,129.57
2023-04-16T10:53:20.886Z,131.83
2023-04-16T10:54:20.918Z,137.16
2023-04-16T10:55:20.939Z,143.83
2023-04-16T10:56:21.084Z,135.65
2023-04-16T10:57:21.008Z,141.62
2023-04-16T10:58:21.049Z,153.27
2023-04-16T10:59:21.064Z,148.75
2023-04-16T11:00:21.097Z,145.41
2023-04-16T11:01:21.154Z,151.56
2023-04-16T11:02:21.281Z,152.51
2023-04-16T11:03:21.348Z,149.93
2023-04-16T11:04:21.449Z,150.86
2023-04-16T11:05:21.248Z,148.98
2023-04-16T11:06:21.276Z,137.28
2023-04-16T11:07:21.324Z,132.05
2023-04-16T11:08:21.371Z,126.95
2023-04-16T11:09:21.372Z,123.38
2023-04-16T11:10:21.409Z,134.40
2023-04-16T11:11:21.450Z,127.24
2023-04-16T11:12:21.465Z,135.97
2023-04-16T11:13:21.507Z,137.19
2023-04-16T11:14:21.531Z,132.00
2023-04-16T11:15:21.577Z,130.65
2023-04-16T11:16:21.649Z,135.73
2023-04-16T11:17:21.693Z,140.25
2023-04-16T11:18:21.777Z,126.89
2023-04-16T11:19:21.687Z,119.93
2023-04-16T11:20:21.772Z,127.50
2023-04-16T11:21:21.768Z,128.69
2023-04-16T11:22:21.810Z,145.69
2023-04-16T11:23:21.848Z,138.88
2023-04-16T11:24:21.862Z,129.88
2023-04-16T11:25:21.904Z,132.28
2023-04-16T11:26:21.904Z,123.77
2023-04-16T11:27:21.939Z,118.77
2023-04-16T11:28:21.976Z,129.30
2023-04-16T11:29:21.988Z,118.04
2023-04-16T11:30:22.029Z,115.09
2023-04-16T11:31:22.071Z,108.02
2023-04-16T11:32:22.119Z,118.65
2023-04-16T11:33:22.113Z,127.61
2023-04-16T11:34:22.122Z,132.12
2023-04-16T11:35:22.161Z,139.94
2023-04-16T11:36:22.174Z,136.41
2023-04-16T11:37:22.238Z,134.44
2023-04-16T11:38:22.243Z,121.80
2023-04-16T11:39:22.278Z,122.62
2023-04-16T11:40:22.295Z,120.62
2023-04-16T11:41:22.410Z,114.05
2023-04-16T11:42:22.463Z,120.91
2023-04-16T11:43:22.400Z,111.51
2023-04-16T11:44:22.406Z,105.30
2023-04-16T11:45:22.430Z,111.33
2023-04-16T11:46:27.714Z,125.83
2023-04-16T11:47:23.650Z,126.41
2023-04-16T11:48:22.538Z,127.94
2023-04-16T11:49:22.435Z,129.24
2023-04-16T11:50:22.433Z,133.38
2023-04-16T11:51:22.422Z,145.47
2023-04-16T11:52:22.431Z,126.12
2023-04-16T11:53:22.415Z,122.91
2023-04-16T11:54:22.407Z,115.84
2023-04-16T11:55:22.399Z,127.31
2023-04-16T11:56:22.378Z,108.50
2023-04-16T11:57:22.360Z,96.29
2023-04-16T11:58:22.365Z,95.52
2023-04-16T11:59:22.354Z,109.89
2023-04-16T12:00:23.734Z,117.68
2023-04-16T12:01:22.337Z,122.00
2023-04-16T12:02:22.443Z,123.36
2023-04-16T12:03:22.665Z,119.76
2023-04-16T12:04:22.496Z,124.94
2023-04-16T12:05:22.452Z,118.78
2023-04-16T12:06:24.420Z,121.91
2023-04-16T12:07:22.507Z,112.66
2023-04-16T12:08:22.541Z,114.67
2023-04-16T12:09:22.548Z,114.25
2023-04-16T12:10:22.591Z,114.01
2023-04-16T12:11:22.595Z,124.01
2023-04-16T12:12:22.617Z,131.05
2023-04-16T12:13:22.678Z,149.38
2023-04-16T12:14:22.703Z,159.32
2023-04-16T12:15:22.732Z,150.43
2023-04-16T12:16:22.808Z,137.77
2023-04-16T12:17:22.841Z,141.74
2023-04-16T12:18:22.838Z,126.25
2023-04-16T12:19:22.838Z,122.91
2023-04-16T12:20:22.862Z,121.59
2023-04-16T12:21:22.890Z,126.59
2023-04-16T12:22:22.918Z,130.37
2023-04-16T12:23:22.936Z,130.22
2023-04-16T12:24:22.988Z,134.78
2023-04-16T12:25:23.087Z,120.54
2023-04-16T12:26:23.034Z,116.82
2023-04-16T12:27:23.057Z,118.58
2023-04-16T12:28:23.089Z,112.48
2023-04-16T12:29:23.120Z,116.89
2023-04-16T12:30:23.132Z,110.71